Les Masies de Roda





Hora UTC 08:35
Temperatura 1.4 ºC
Sòl 15 cm 1.6 ºC
Subsòl 10 cm 4.5 ºC
Humitat 98.4 %
Pressió 1000.4 hPa
Pluja 0.0 mm
Velocitat vent 6.7 km/h
Direcció vent NW
Radiació solar 71.0 W/m²

Dades diàries 2019-11-15



Hora UTC (hivern +1h; estiu +2h)
Temperatura (ºC) Humitat (%) Pressió (hPa) Velocitat vent (km/h) Precipitació (mm) Radiació solar (W/m²)
Hora UTC Aire Sòl 15 cm Subsòl 10 cm Humitat Pressió Vel. Dir. Vel. Max Dir. Intent. màx 5 min. Rad. Sol.
00:05 2.8 2.0 5.4 93.3 998.3 4.8 SW 4.8 SW 0.0 0.1
00:10 2.9 2.1 5.4 93.0 998.2 3.4 SW 6.1 WSW 0.0 0.1
00:15 2.8 1.9 5.4 92.6 998.2 0.5 SW 3.4 SW 0.0 0.1
00:20 2.8 1.8 5.3 92.1 998.3 3.2 SSW 6.1 SSW 0.0 0.1
00:25 2.9 2.0 5.3 91.8 998.4 3.8 SW 6.1 SSW 0.0 0.1
00:30 2.9 2.0 5.4 91.5 998.5 1.4 SW 6.1 SW 0.0 0.1
00:35 2.9 2.0 5.4 92.0 998.5 1.0 N 6.1 N 0.0 0.1
00:40 2.8 1.8 5.3 92.8 998.4 2.4 N 6.1 NNE 0.0 0.1
00:45 2.7 1.5 5.3 93.0 998.4 3.1 N 6.1 N 0.0 0.1
00:50 2.6 1.2 5.2 92.9 998.4 0.1 NNW 3.4 N 0.0 0.1
00:55 2.3 0.8 5.1 93.4 998.5 0.3 WNW 3.4 WNW 0.0 0.1
01:00 2.3 0.6 5.1 94.2 998.5 0.6 W 3.4 W 0.0 0.1
01:05 2.1 0.4 5.0 94.4 998.4 1.3 W 3.4 W 0.0 0.1
01:10 2.0 0.2 4.9 94.6 998.5 0.3 W 3.4 W 0.0 0.1
01:15 1.9 -0.1 4.9 94.9 998.5 0.2 W 3.4 W 0.0 0.1
01:20 1.8 -0.1 4.8 95.1 998.5 0.1 W 3.4 W 0.0 0.1
01:25 1.6 -0.3 4.7 95.4 998.6 0.9 SSW 3.4 SW 0.0 0.1
01:30 1.7 -0.4 4.7 96.0 998.6 0.7 SSW 6.1 SSW 0.0 0.1
01:35 1.6 -0.5 4.6 95.9 998.7 0.0 NNE 0.0 SSW 0.0 0.1
01:40 1.5 -0.5 4.6 95.7 998.7 0.1 SSW 3.4 SSW 0.0 0.1
01:45 1.2 -0.5 4.5 95.7 998.8 3.0 WSW 6.1 WSW 0.0 0.1
01:50 1.1 -0.8 4.5 96.2 998.8 1.0 SW 6.1 WSW 0.0 0.1
01:55 1.4 -0.8 4.4 97.0 998.9 0.0 NNE 0.0 SSE 0.0 0.1
02:00 1.3 -0.6 4.4 97.0 998.9 0.0 NNE 0.0 SSE 0.0 0.1
02:05 1.2 -0.6 4.3 97.0 998.9 0.0 NNE 0.0 SSE 0.0 0.1
02:10 1.1 -0.7 4.3 97.1 998.9 0.0 NNE 0.0 SSE 0.0 0.1
02:15 1.1 -0.8 4.2 97.3 998.9 0.0 NNE 0.0 SSE 0.0 0.1
02:20 1.1 -0.8 4.2 97.3 998.8 0.0 NNE 0.0 SE 0.0 0.1
02:25 0.8 -0.8 4.1 97.0 998.8 0.6 SE 3.4 SE 0.0 0.1
02:30 0.6 -1.1 4.1 97.0 998.8 0.1 SE 3.4 SE 0.0 0.1
02:35 0.9 -1.1 4.0 97.7 998.9 0.7 SE 3.4 SE 0.0 0.1
02:40 0.9 -0.9 4.0 97.5 998.9 0.0 NNE 0.0 SE 0.0 0.1
02:45 0.8 -0.9 3.9 97.5 998.8 0.0 NNE 0.0 SE 0.0 0.1
02:50 0.6 -0.9 3.9 97.3 998.8 0.0 NNE 0.0 ESE 0.0 0.1
02:55 0.4 -1.2 3.9 97.3 998.8 0.0 NNE 0.0 ESE 0.0 0.1
03:00 0.5 -1.3 3.8 97.5 998.9 0.0 NNE 0.0 ESE 0.0 0.1
03:05 0.4 -1.4 3.8 97.5 998.9 0.0 NNE 0.0 ESE 0.0 0.1
03:10 0.4 -1.4 3.7 97.6 998.8 0.0 NNE 0.0 ESE 0.0 0.1
03:15 0.4 -1.5 3.7 97.8 998.8 0.0 NNE 0.0 ESE 0.0 0.1
03:20 0.5 -1.4 3.7 98.1 998.8 0.3 SE 3.4 SE 0.0 0.1
03:25 0.7 -1.3 3.6 98.3 998.8 0.0 SE 3.4 SE 0.0 0.1
03:30 0.8 -1.0 3.6 98.4 998.8 1.2 ESE 6.1 ESE 0.0 0.1
03:35 1.0 -0.6 3.6 98.7 998.7 2.2 SE 6.1 E 0.0 0.1
03:40 1.1 -0.4 3.6 98.6 998.8 1.3 SSE 6.1 SE 0.0 0.1
03:45 0.9 -0.4 3.6 98.2 998.9 0.1 SSE 3.4 SSE 0.0 0.1
03:50 0.7 -0.4 3.6 98.4 998.9 0.3 SSE 3.4 SSE 0.0 0.1
03:55 0.7 -0.4 3.6 98.6 998.9 0.1 SSE 3.4 SSE 0.0 0.1
04:00 0.8 -0.4 3.6 98.7 998.9 0.3 N 3.4 N 0.0 0.1
04:05 0.8 -0.3 3.6 98.7 998.9 0.5 N 3.4 N 0.0 0.1
04:10 0.7 -0.3 3.6 98.5 999.0 0.0 NNE 0.0 NNW 0.0 0.1
04:15 0.6 -0.5 3.6 98.7 999.0 0.0 NNE 0.0 NNW 0.0 0.1
04:20 0.6 -0.6 3.5 98.8 999.0 0.0 NNE 0.0 NNW 0.0 0.1
04:25 0.6 -0.7 3.5 98.8 999.0 0.0 NNE 0.0 NNW 0.0 0.1
04:30 0.6 -0.7 3.5 98.7 999.1 0.0 NNE 0.0 NNW 0.0 0.1
04:35 0.5 -0.5 3.5 98.8 999.0 0.0 NNE 0.0 NNW 0.0 0.1
04:40 0.6 -0.4 3.5 98.9 999.0 0.0 NNE 0.0 NNW 0.0 0.1
04:45 0.6 -0.2 3.6 98.9 998.9 0.0 NNE 0.0 NNW 0.0 0.1
04:50 0.7 0.0 3.6 98.9 998.9 0.1 NNW 3.4 NNW 0.0 0.1
04:55 0.7 0.0 3.6 98.9 999.0 0.0 NNE 0.0 NNW 0.0 0.1
05:00 0.8 0.2 3.6 99.1 999.0 0.0 NNE 0.0 NNW 0.0 0.1
05:05 0.9 0.3 3.7 99.0 999.0 0.0 NNE 0.0 NNW 0.0 0.1
05:10 0.9 0.4 3.7 99.0 998.9 0.0 NNE 0.0 NNW 0.0 0.1
05:15 1.0 0.5 3.7 99.0 998.9 0.0 NNE 0.0 NNW 0.0 0.1
05:20 1.0 0.6 3.8 98.9 999.0 0.0 NNE 0.0 NNW 0.0 0.1
05:25 1.0 0.6 3.8 98.9 999.1 0.0 NNE 0.0 NNW 0.0 0.1
05:30 1.1 0.7 3.8 99.0 999.1 0.0 NNE 0.0 NNW 0.0 0.1
05:35 1.1 0.8 3.9 99.0 999.1 0.0 NNE 0.0 NNW 0.0 0.1
05:40 1.1 0.8 3.9 98.9 999.1 0.0 NNE 0.0 NNW 0.0 0.1
05:45 1.1 0.8 3.9 98.9 999.1 2.0 W 6.1 W 0.0 0.1
05:50 1.1 0.8 3.9 99.0 999.1 0.0 NNE 0.0 WSW 0.0 0.1
05:55 1.1 0.9 3.9 98.9 999.1 1.9 WSW 6.1 WSW 0.0 0.1
06:00 1.1 1.0 3.9 99.1 999.2 2.1 WSW 6.1 SW 0.0 0.1
06:05 1.2 1.1 3.9 99.1 999.2 3.3 W 6.1 WSW 0.0 0.1
06:10 1.2 1.1 3.9 99.0 999.2 3.8 W 6.1 W 0.0 0.1
06:15 1.1 1.1 4.0 99.0 999.2 3.2 W 6.1 W 0.0 0.1
06:20 1.2 1.1 4.0 99.1 999.2 1.7 WSW 6.1 WSW 0.0 0.1
06:25 1.2 1.1 4.0 99.1 999.3 0.0 NNE 0.0 WSW 0.0 0.1
06:30 1.3 1.2 4.0 99.2 999.4 0.0 NNE 0.0 WSW 0.0 0.2
06:35 1.3 1.3 4.0 99.2 999.4 0.0 NNE 0.0 SW 0.0 0.5
06:40 1.4 1.3 4.1 99.2 999.4 0.0 NNE 0.0 SW 0.0 1.0
06:45 1.4 1.4 4.1 99.2 999.5 0.0 NNE 0.0 SW 0.0 1.6
06:50 1.4 1.4 4.1 99.2 999.5 0.0 NNE 0.0 WSW 0.0 2.5
06:55 1.5 1.4 4.1 99.2 999.5 0.0 NNE 0.0 WSW 0.0 3.6
07:00 1.5 1.5 4.1 99.3 999.6 0.0 NNE 0.0 WSW 0.0 5.2
07:05 1.5 1.5 4.2 99.2 999.6 0.0 NNE 0.0 WNW 0.0 7.1
07:10 1.4 1.5 4.2 99.2 999.7 0.0 NNE 0.0 WSW 0.0 10.8
07:15 1.4 1.5 4.2 99.2 999.7 0.2 WSW 3.4 SW 0.0 13.5
07:20 1.4 1.5 4.2 99.2 999.9 1.5 SW 6.1 WSW 0.0 14.0
07:25 1.4 1.5 4.2 99.3 1000.1 1.4 SW 6.1 SW 0.0 14.8
07:30 1.5 1.6 4.2 99.3 1000.2 2.4 WNW 6.1 W 0.0 16.9
07:35 1.5 1.6 4.2 99.2 1000.3 1.7 WNW 6.1 NW 0.0 21.1
07:40 1.4 1.6 4.3 99.2 1000.3 2.9 WNW 6.1 WNW 0.0 24.9
07:45 1.3 1.6 4.3 99.1 1000.3 4.4 W 6.1 W 0.0 30.5
07:50 1.3 1.6 4.3 99.1 1000.4 4.8 W 6.1 WNW 0.0 32.4
07:55 1.4 1.6 4.3 99.1 1000.4 3.3 WSW 6.1 W 0.0 39.2
08:00 1.2 1.5 4.3 98.9 1000.4 0.6 WSW 3.4 WSW 0.0 47.4
08:05 1.3 1.6 4.4 99.0 1000.3 0.0 NNE 0.0 NW 0.0 57.2
08:10 1.4 1.7 4.4 99.0 1000.3 0.3 W 6.1 WSW 0.0 67.4
08:15 1.4 1.7 4.5 98.8 1000.3 2.3 W 6.1 WSW 0.0 69.7
08:20 1.5 1.7 4.5 98.8 1000.3 4.4 WNW 6.1 W 0.0 59.9
08:25 1.5 1.6 4.5 98.7 1000.3 4.0 WNW 6.1 W 0.0 51.5
08:30 1.5 1.6 4.5 98.5 1000.3 4.8 WNW 6.1 WNW 0.0 64.6
08:35 1.4 1.6 4.5 98.4 1000.4 6.7 NW 11.5 WNW 0.0 71.0
Màxima 2.9 2.1 5.4 99.3 1000.4 6.7 NW 11.5 WNW 0.0 71.0
Mínima 0.3 -1.5 3.5 91.5 998.2
Total 0.0